sensor_id;sensor_type;location;lat;lon;timestamp;P1;durP1;ratioP1;P2;durP2;ratioP2
3141;SDS011;1581;51.568;6.998;2023-07-09T00:00:48;7.15;;;5.38;;
3141;SDS011;1581;51.568;6.998;2023-07-09T00:03:17;6.55;;;4.60;;
3141;SDS011;1581;51.568;6.998;2023-07-09T00:05:46;9.73;;;5.18;;
3141;SDS011;1581;51.568;6.998;2023-07-09T00:08:21;7.57;;;5.45;;
3141;SDS011;1581;51.568;6.998;2023-07-09T00:10:54;15.80;;;5.93;;
3141;SDS011;1581;51.568;6.998;2023-07-09T00:13:25;6.93;;;5.35;;
3141;SDS011;1581;51.568;6.998;2023-07-09T00:15:55;6.47;;;5.57;;
3141;SDS011;1581;51.568;6.998;2023-07-09T00:18:27;9.82;;;5.18;;
3141;SDS011;1581;51.568;6.998;2023-07-09T00:20:54;10.80;;;5.25;;
3141;SDS011;1581;51.568;6.998;2023-07-09T00:23:24;12.30;;;5.50;;
3141;SDS011;1581;51.568;6.998;2023-07-09T00:25:52;9.88;;;5.10;;
3141;SDS011;1581;51.568;6.998;2023-07-09T00:28:20;6.90;;;5.35;;
3141;SDS011;1581;51.568;6.998;2023-07-09T00:33:27;7.70;;;4.85;;
3141;SDS011;1581;51.568;6.998;2023-07-09T00:35:56;8.38;;;5.32;;
3141;SDS011;1581;51.568;6.998;2023-07-09T00:38:25;9.27;;;5.05;;
3141;SDS011;1581;51.568;6.998;2023-07-09T00:40:58;6.43;;;4.88;;
3141;SDS011;1581;51.568;6.998;2023-07-09T00:43:31;9.82;;;5.80;;
3141;SDS011;1581;51.568;6.998;2023-07-09T00:46:16;11.90;;;5.45;;
3141;SDS011;1581;51.568;6.998;2023-07-09T00:49:24;7.97;;;5.32;;
3141;SDS011;1581;51.568;6.998;2023-07-09T00:51:58;10.35;;;5.35;;
3141;SDS011;1581;51.568;6.998;2023-07-09T00:54:30;6.75;;;5.03;;
3141;SDS011;1581;51.568;6.998;2023-07-09T00:57:04;8.30;;;5.80;;
3141;SDS011;1581;51.568;6.998;2023-07-09T00:59:37;8.65;;;5.82;;
3141;SDS011;1581;51.568;6.998;2023-07-09T01:02:09;8.48;;;5.07;;
3141;SDS011;1581;51.568;6.998;2023-07-09T01:04:40;9.07;;;5.03;;
3141;SDS011;1581;51.568;6.998;2023-07-09T01:07:08;10.98;;;4.70;;
3141;SDS011;1581;51.568;6.998;2023-07-09T01:09:36;7.20;;;5.30;;
3141;SDS011;1581;51.568;6.998;2023-07-09T01:12:06;7.20;;;4.72;;
3141;SDS011;1581;51.568;6.998;2023-07-09T01:14:37;10.32;;;5.43;;
3141;SDS011;1581;51.568;6.998;2023-07-09T01:17:06;8.13;;;5.15;;
3141;SDS011;1581;51.568;6.998;2023-07-09T01:19:37;10.05;;;4.82;;
3141;SDS011;1581;51.568;6.998;2023-07-09T01:22:15;5.65;;;4.35;;
3141;SDS011;1581;51.568;6.998;2023-07-09T01:24:55;9.50;;;5.15;;
3141;SDS011;1581;51.568;6.998;2023-07-09T01:27:28;6.97;;;5.25;;
3141;SDS011;1581;51.568;6.998;2023-07-09T01:29:59;11.55;;;5.13;;
3141;SDS011;1581;51.568;6.998;2023-07-09T01:32:31;14.13;;;5.28;;
3141;SDS011;1581;51.568;6.998;2023-07-09T01:35:00;9.43;;;4.97;;
3141;SDS011;1581;51.568;6.998;2023-07-09T01:37:34;9.90;;;4.95;;
3141;SDS011;1581;51.568;6.998;2023-07-09T01:40:04;11.07;;;5.40;;
3141;SDS011;1581;51.568;6.998;2023-07-09T01:42:36;9.38;;;5.70;;
3141;SDS011;1581;51.568;6.998;2023-07-09T01:45:05;7.60;;;5.00;;
3141;SDS011;1581;51.568;6.998;2023-07-09T01:47:35;6.20;;;4.20;;
3141;SDS011;1581;51.568;6.998;2023-07-09T01:50:04;10.32;;;5.72;;
3141;SDS011;1581;51.568;6.998;2023-07-09T01:52:37;6.10;;;5.18;;
3141;SDS011;1581;51.568;6.998;2023-07-09T01:55:09;12.90;;;5.90;;
3141;SDS011;1581;51.568;6.998;2023-07-09T01:57:42;7.70;;;5.65;;
3141;SDS011;1581;51.568;6.998;2023-07-09T02:00:11;6.55;;;5.03;;
3141;SDS011;1581;51.568;6.998;2023-07-09T02:02:42;12.57;;;5.20;;
3141;SDS011;1581;51.568;6.998;2023-07-09T02:05:13;6.75;;;5.05;;
3141;SDS011;1581;51.568;6.998;2023-07-09T02:07:47;11.88;;;7.40;;
3141;SDS011;1581;51.568;6.998;2023-07-09T02:10:15;10.73;;;7.72;;
3141;SDS011;1581;51.568;6.998;2023-07-09T02:12:44;13.85;;;6.07;;
3141;SDS011;1581;51.568;6.998;2023-07-09T02:15:12;9.43;;;5.85;;
3141;SDS011;1581;51.568;6.998;2023-07-09T02:17:41;12.25;;;5.05;;
3141;SDS011;1581;51.568;6.998;2023-07-09T02:20:10;7.93;;;4.68;;
3141;SDS011;1581;51.568;6.998;2023-07-09T02:22:39;7.28;;;5.15;;
3141;SDS011;1581;51.568;6.998;2023-07-09T02:25:09;7.88;;;5.88;;
3141;SDS011;1581;51.568;6.998;2023-07-09T02:27:37;7.80;;;4.97;;
3141;SDS011;1581;51.568;6.998;2023-07-09T02:30:06;7.78;;;5.07;;
3141;SDS011;1581;51.568;6.998;2023-07-09T02:32:36;7.63;;;5.13;;
3141;SDS011;1581;51.568;6.998;2023-07-09T02:35:04;7.43;;;4.90;;
3141;SDS011;1581;51.568;6.998;2023-07-09T02:37:33;6.28;;;5.28;;
3141;SDS011;1581;51.568;6.998;2023-07-09T02:40:01;6.65;;;4.55;;
3141;SDS011;1581;51.568;6.998;2023-07-09T02:42:32;10.73;;;5.18;;
3141;SDS011;1581;51.568;6.998;2023-07-09T02:45:00;6.28;;;4.85;;
3141;SDS011;1581;51.568;6.998;2023-07-09T02:47:29;6.68;;;5.35;;
3141;SDS011;1581;51.568;6.998;2023-07-09T02:49:57;13.60;;;6.05;;
3141;SDS011;1581;51.568;6.998;2023-07-09T02:52:25;6.35;;;4.88;;
3141;SDS011;1581;51.568;6.998;2023-07-09T02:54:53;12.57;;;5.95;;
3141;SDS011;1581;51.568;6.998;2023-07-09T02:57:21;7.85;;;5.38;;
3141;SDS011;1581;51.568;6.998;2023-07-09T02:59:50;6.30;;;5.00;;
3141;SDS011;1581;51.568;6.998;2023-07-09T03:02:18;5.47;;;4.35;;
3141;SDS011;1581;51.568;6.998;2023-07-09T03:04:46;6.38;;;4.88;;
3141;SDS011;1581;51.568;6.998;2023-07-09T03:07:14;7.18;;;5.30;;
3141;SDS011;1581;51.568;6.998;2023-07-09T03:09:42;14.07;;;5.60;;
3141;SDS011;1581;51.568;6.998;2023-07-09T03:12:10;5.80;;;4.95;;
3141;SDS011;1581;51.568;6.998;2023-07-09T03:14:37;7.93;;;5.35;;
3141;SDS011;1581;51.568;6.998;2023-07-09T03:17:07;7.50;;;5.20;;
3141;SDS011;1581;51.568;6.998;2023-07-09T03:19:35;7.10;;;5.03;;
3141;SDS011;1581;51.568;6.998;2023-07-09T03:22:02;10.98;;;4.68;;
3141;SDS011;1581;51.568;6.998;2023-07-09T03:24:30;7.70;;;5.97;;
3141;SDS011;1581;51.568;6.998;2023-07-09T03:26:58;8.20;;;4.78;;
3141;SDS011;1581;51.568;6.998;2023-07-09T03:29:26;7.53;;;4.90;;
3141;SDS011;1581;51.568;6.998;2023-07-09T03:31:54;7.32;;;4.70;;
3141;SDS011;1581;51.568;6.998;2023-07-09T03:34:23;6.45;;;5.43;;
3141;SDS011;1581;51.568;6.998;2023-07-09T03:36:52;8.30;;;5.80;;
3141;SDS011;1581;51.568;6.998;2023-07-09T03:39:19;7.93;;;5.20;;
3141;SDS011;1581;51.568;6.998;2023-07-09T03:41:47;11.02;;;5.03;;
3141;SDS011;1581;51.568;6.998;2023-07-09T03:44:15;9.98;;;4.97;;
3141;SDS011;1581;51.568;6.998;2023-07-09T03:46:42;7.63;;;5.32;;
3141;SDS011;1581;51.568;6.998;2023-07-09T03:49:10;12.15;;;5.57;;
3141;SDS011;1581;51.568;6.998;2023-07-09T03:51:40;7.05;;;5.47;;
3141;SDS011;1581;51.568;6.998;2023-07-09T03:54:07;8.32;;;5.10;;
3141;SDS011;1581;51.568;6.998;2023-07-09T03:56:35;7.15;;;4.70;;
3141;SDS011;1581;51.568;6.998;2023-07-09T03:59:03;7.45;;;5.40;;
3141;SDS011;1581;51.568;6.998;2023-07-09T04:01:31;8.73;;;5.68;;
3141;SDS011;1581;51.568;6.998;2023-07-09T04:04:02;6.72;;;5.25;;
3141;SDS011;1581;51.568;6.998;2023-07-09T04:06:30;7.95;;;5.53;;
3141;SDS011;1581;51.568;6.998;2023-07-09T04:08:59;8.20;;;4.78;;
3141;SDS011;1581;51.568;6.998;2023-07-09T04:11:27;6.72;;;5.22;;
3141;SDS011;1581;51.568;6.998;2023-07-09T04:13:55;9.30;;;5.10;;
3141;SDS011;1581;51.568;6.998;2023-07-09T04:16:23;13.45;;;5.30;;
3141;SDS011;1581;51.568;6.998;2023-07-09T04:18:51;15.63;;;5.63;;
3141;SDS011;1581;51.568;6.998;2023-07-09T04:21:18;8.38;;;4.88;;
3141;SDS011;1581;51.568;6.998;2023-07-09T04:23:46;13.68;;;7.00;;
3141;SDS011;1581;51.568;6.998;2023-07-09T04:26:15;10.57;;;5.35;;
3141;SDS011;1581;51.568;6.998;2023-07-09T04:28:43;7.78;;;5.95;;
3141;SDS011;1581;51.568;6.998;2023-07-09T04:31:11;10.77;;;4.90;;
3141;SDS011;1581;51.568;6.998;2023-07-09T04:33:39;12.57;;;6.53;;
3141;SDS011;1581;51.568;6.998;2023-07-09T04:36:08;9.90;;;4.93;;
3141;SDS011;1581;51.568;6.998;2023-07-09T04:38:38;6.38;;;4.93;;
3141;SDS011;1581;51.568;6.998;2023-07-09T04:41:06;10.60;;;5.45;;
3141;SDS011;1581;51.568;6.998;2023-07-09T04:43:35;8.00;;;5.25;;
3141;SDS011;1581;51.568;6.998;2023-07-09T04:46:03;7.57;;;5.70;;
3141;SDS011;1581;51.568;6.998;2023-07-09T04:48:31;5.82;;;4.80;;
3141;SDS011;1581;51.568;6.998;2023-07-09T04:50:59;8.80;;;5.10;;
3141;SDS011;1581;51.568;6.998;2023-07-09T04:53:27;6.80;;;5.57;;
3141;SDS011;1581;51.568;6.998;2023-07-09T04:55:56;7.55;;;5.10;;
3141;SDS011;1581;51.568;6.998;2023-07-09T04:58:23;6.50;;;4.80;;
3141;SDS011;1581;51.568;6.998;2023-07-09T05:00:53;7.32;;;5.32;;
3141;SDS011;1581;51.568;6.998;2023-07-09T05:03:24;8.07;;;5.40;;
3141;SDS011;1581;51.568;6.998;2023-07-09T05:05:52;9.27;;;5.70;;
3141;SDS011;1581;51.568;6.998;2023-07-09T05:08:21;7.55;;;5.82;;
3141;SDS011;1581;51.568;6.998;2023-07-09T05:10:50;8.07;;;5.15;;
3141;SDS011;1581;51.568;6.998;2023-07-09T05:13:19;10.05;;;5.65;;
3141;SDS011;1581;51.568;6.998;2023-07-09T05:15:47;10.77;;;5.63;;
3141;SDS011;1581;51.568;6.998;2023-07-09T05:18:18;8.02;;;5.60;;
3141;SDS011;1581;51.568;6.998;2023-07-09T05:20:46;11.15;;;5.68;;
3141;SDS011;1581;51.568;6.998;2023-07-09T05:23:16;15.45;;;5.93;;
3141;SDS011;1581;51.568;6.998;2023-07-09T05:25:44;7.85;;;5.32;;
3141;SDS011;1581;51.568;6.998;2023-07-09T05:28:12;8.90;;;5.53;;
3141;SDS011;1581;51.568;6.998;2023-07-09T05:30:41;10.57;;;6.00;;
3141;SDS011;1581;51.568;6.998;2023-07-09T05:33:09;9.82;;;5.60;;
3141;SDS011;1581;51.568;6.998;2023-07-09T05:35:38;5.90;;;5.05;;
3141;SDS011;1581;51.568;6.998;2023-07-09T05:38:06;9.98;;;5.78;;
3141;SDS011;1581;51.568;6.998;2023-07-09T05:40:34;7.00;;;5.30;;
3141;SDS011;1581;51.568;6.998;2023-07-09T05:43:02;9.98;;;5.63;;
3141;SDS011;1581;51.568;6.998;2023-07-09T05:45:30;9.50;;;5.05;;
3141;SDS011;1581;51.568;6.998;2023-07-09T05:47:58;7.75;;;6.10;;
3141;SDS011;1581;51.568;6.998;2023-07-09T05:50:26;9.00;;;5.25;;
3141;SDS011;1581;51.568;6.998;2023-07-09T05:52:56;8.10;;;5.55;;
3141;SDS011;1581;51.568;6.998;2023-07-09T05:55:24;8.43;;;4.95;;
3141;SDS011;1581;51.568;6.998;2023-07-09T05:57:51;7.88;;;6.00;;
3141;SDS011;1581;51.568;6.998;2023-07-09T06:00:19;9.80;;;6.00;;
3141;SDS011;1581;51.568;6.998;2023-07-09T06:02:47;8.80;;;5.90;;
3141;SDS011;1581;51.568;6.998;2023-07-09T06:05:15;7.47;;;4.60;;
3141;SDS011;1581;51.568;6.998;2023-07-09T06:07:43;7.93;;;5.40;;
3141;SDS011;1581;51.568;6.998;2023-07-09T06:10:14;7.55;;;5.40;;
3141;SDS011;1581;51.568;6.998;2023-07-09T06:12:42;6.15;;;5.38;;
3141;SDS011;1581;51.568;6.998;2023-07-09T06:15:10;10.15;;;5.25;;
3141;SDS011;1581;51.568;6.998;2023-07-09T06:17:38;13.82;;;5.88;;
3141;SDS011;1581;51.568;6.998;2023-07-09T06:20:07;11.10;;;5.85;;
3141;SDS011;1581;51.568;6.998;2023-07-09T06:22:36;11.82;;;5.65;;
3141;SDS011;1581;51.568;6.998;2023-07-09T06:25:04;9.85;;;6.72;;
3141;SDS011;1581;51.568;6.998;2023-07-09T06:27:35;7.20;;;5.50;;
3141;SDS011;1581;51.568;6.998;2023-07-09T06:30:03;7.53;;;5.35;;
3141;SDS011;1581;51.568;6.998;2023-07-09T06:32:32;9.10;;;5.55;;
3141;SDS011;1581;51.568;6.998;2023-07-09T06:35:00;6.95;;;5.05;;
3141;SDS011;1581;51.568;6.998;2023-07-09T06:37:29;6.70;;;5.30;;
3141;SDS011;1581;51.568;6.998;2023-07-09T06:39:57;7.55;;;5.00;;
3141;SDS011;1581;51.568;6.998;2023-07-09T06:42:28;9.05;;;5.20;;
3141;SDS011;1581;51.568;6.998;2023-07-09T06:44:57;12.45;;;6.07;;
3141;SDS011;1581;51.568;6.998;2023-07-09T06:47:25;9.27;;;5.75;;
3141;SDS011;1581;51.568;6.998;2023-07-09T06:49:53;10.27;;;6.40;;
3141;SDS011;1581;51.568;6.998;2023-07-09T06:52:21;8.07;;;5.55;;
3141;SDS011;1581;51.568;6.998;2023-07-09T06:54:49;8.15;;;5.70;;
3141;SDS011;1581;51.568;6.998;2023-07-09T06:57:17;7.85;;;5.43;;
3141;SDS011;1581;51.568;6.998;2023-07-09T06:59:45;7.35;;;5.03;;
3141;SDS011;1581;51.568;6.998;2023-07-09T07:02:14;8.00;;;5.32;;
3141;SDS011;1581;51.568;6.998;2023-07-09T07:04:42;7.05;;;4.75;;
3141;SDS011;1581;51.568;6.998;2023-07-09T07:07:10;7.57;;;5.05;;
3141;SDS011;1581;51.568;6.998;2023-07-09T07:09:38;8.57;;;5.15;;
3141;SDS011;1581;51.568;6.998;2023-07-09T07:12:06;6.50;;;5.20;;
3141;SDS011;1581;51.568;6.998;2023-07-09T07:14:35;4.93;;;4.38;;
3141;SDS011;1581;51.568;6.998;2023-07-09T07:17:03;10.70;;;4.78;;
3141;SDS011;1581;51.568;6.998;2023-07-09T07:19:32;8.05;;;5.13;;
3141;SDS011;1581;51.568;6.998;2023-07-09T07:22:00;5.40;;;4.70;;
3141;SDS011;1581;51.568;6.998;2023-07-09T07:24:28;8.38;;;5.28;;
3141;SDS011;1581;51.568;6.998;2023-07-09T07:26:56;7.25;;;4.90;;
3141;SDS011;1581;51.568;6.998;2023-07-09T07:29:23;7.47;;;5.28;;
3141;SDS011;1581;51.568;6.998;2023-07-09T07:31:51;10.52;;;5.35;;
3141;SDS011;1581;51.568;6.998;2023-07-09T07:34:20;10.88;;;6.18;;
3141;SDS011;1581;51.568;6.998;2023-07-09T07:36:50;11.82;;;5.68;;
3141;SDS011;1581;51.568;6.998;2023-07-09T07:39:18;8.93;;;5.78;;
3141;SDS011;1581;51.568;6.998;2023-07-09T07:41:46;7.45;;;4.47;;
3141;SDS011;1581;51.568;6.998;2023-07-09T07:44:16;9.90;;;5.00;;
3141;SDS011;1581;51.568;6.998;2023-07-09T07:46:44;8.45;;;5.32;;
3141;SDS011;1581;51.568;6.998;2023-07-09T07:49:12;7.45;;;5.07;;
3141;SDS011;1581;51.568;6.998;2023-07-09T07:51:40;5.53;;;4.93;;
3141;SDS011;1581;51.568;6.998;2023-07-09T07:54:11;9.32;;;5.82;;
3141;SDS011;1581;51.568;6.998;2023-07-09T07:56:40;6.55;;;5.32;;
3141;SDS011;1581;51.568;6.998;2023-07-09T07:59:08;8.35;;;5.07;;
3141;SDS011;1581;51.568;6.998;2023-07-09T08:01:36;10.07;;;5.07;;
3141;SDS011;1581;51.568;6.998;2023-07-09T08:04:04;9.95;;;5.53;;
3141;SDS011;1581;51.568;6.998;2023-07-09T08:06:33;8.45;;;5.05;;
3141;SDS011;1581;51.568;6.998;2023-07-09T08:09:01;7.15;;;4.95;;
3141;SDS011;1581;51.568;6.998;2023-07-09T08:11:30;5.85;;;5.03;;
3141;SDS011;1581;51.568;6.998;2023-07-09T08:13:58;6.78;;;5.70;;
3141;SDS011;1581;51.568;6.998;2023-07-09T08:16:27;8.27;;;5.40;;
3141;SDS011;1581;51.568;6.998;2023-07-09T08:18:55;12.38;;;5.72;;
3141;SDS011;1581;51.568;6.998;2023-07-09T08:21:23;6.47;;;5.03;;
3141;SDS011;1581;51.568;6.998;2023-07-09T08:23:51;4.85;;;4.28;;
3141;SDS011;1581;51.568;6.998;2023-07-09T08:26:19;6.60;;;5.05;;
3141;SDS011;1581;51.568;6.998;2023-07-09T08:28:48;9.13;;;5.07;;
3141;SDS011;1581;51.568;6.998;2023-07-09T08:31:16;9.43;;;5.70;;
3141;SDS011;1581;51.568;6.998;2023-07-09T08:33:44;7.80;;;5.70;;
3141;SDS011;1581;51.568;6.998;2023-07-09T08:36:12;6.20;;;4.82;;
3141;SDS011;1581;51.568;6.998;2023-07-09T08:38:40;6.75;;;5.22;;
3141;SDS011;1581;51.568;6.998;2023-07-09T08:41:08;7.80;;;5.72;;
3141;SDS011;1581;51.568;6.998;2023-07-09T08:43:54;8.52;;;5.70;;
3141;SDS011;1581;51.568;6.998;2023-07-09T08:46:33;8.32;;;5.18;;
3141;SDS011;1581;51.568;6.998;2023-07-09T08:49:14;7.95;;;4.60;;
3141;SDS011;1581;51.568;6.998;2023-07-09T08:51:45;6.25;;;4.57;;
3141;SDS011;1581;51.568;6.998;2023-07-09T08:54:17;5.93;;;4.53;;
3141;SDS011;1581;51.568;6.998;2023-07-09T08:56:53;8.35;;;5.57;;
3141;SDS011;1581;51.568;6.998;2023-07-09T08:59:23;9.13;;;5.32;;
3141;SDS011;1581;51.568;6.998;2023-07-09T09:01:53;11.40;;;5.75;;
3141;SDS011;1581;51.568;6.998;2023-07-09T09:04:27;10.18;;;5.07;;
3141;SDS011;1581;51.568;6.998;2023-07-09T09:06:59;5.15;;;4.65;;
3141;SDS011;1581;51.568;6.998;2023-07-09T09:09:38;10.20;;;5.95;;
3141;SDS011;1581;51.568;6.998;2023-07-09T09:12:15;9.35;;;5.55;;
3141;SDS011;1581;51.568;6.998;2023-07-09T09:14:52;13.23;;;5.38;;
3141;SDS011;1581;51.568;6.998;2023-07-09T09:17:34;7.78;;;5.10;;
3141;SDS011;1581;51.568;6.998;2023-07-09T09:20:08;8.05;;;5.63;;
3141;SDS011;1581;51.568;6.998;2023-07-09T09:22:44;9.82;;;5.63;;
3141;SDS011;1581;51.568;6.998;2023-07-09T09:25:21;6.90;;;5.10;;
3141;SDS011;1581;51.568;6.998;2023-07-09T09:27:54;5.88;;;4.82;;
3141;SDS011;1581;51.568;6.998;2023-07-09T09:30:24;7.97;;;5.05;;
3141;SDS011;1581;51.568;6.998;2023-07-09T09:32:57;9.90;;;5.35;;
3141;SDS011;1581;51.568;6.998;2023-07-09T09:35:29;12.68;;;5.07;;
3141;SDS011;1581;51.568;6.998;2023-07-09T09:38:03;5.78;;;4.43;;
3141;SDS011;1581;51.568;6.998;2023-07-09T09:40:38;7.38;;;4.32;;
3141;SDS011;1581;51.568;6.998;2023-07-09T09:43:10;6.65;;;4.60;;
3141;SDS011;1581;51.568;6.998;2023-07-09T09:45:43;9.88;;;4.40;;
3141;SDS011;1581;51.568;6.998;2023-07-09T09:48:14;10.38;;;4.28;;
3141;SDS011;1581;51.568;6.998;2023-07-09T09:50:45;9.32;;;4.85;;
3141;SDS011;1581;51.568;6.998;2023-07-09T09:53:17;6.50;;;4.28;;
3141;SDS011;1581;51.568;6.998;2023-07-09T09:55:55;5.82;;;4.28;;
3141;SDS011;1581;51.568;6.998;2023-07-09T09:58:26;9.18;;;5.05;;
3141;SDS011;1581;51.568;6.998;2023-07-09T10:00:58;5.55;;;4.03;;
3141;SDS011;1581;51.568;6.998;2023-07-09T10:03:33;5.15;;;3.92;;
3141;SDS011;1581;51.568;6.998;2023-07-09T10:06:03;4.55;;;3.85;;
3141;SDS011;1581;51.568;6.998;2023-07-09T10:08:42;7.13;;;4.55;;
3141;SDS011;1581;51.568;6.998;2023-07-09T10:11:23;5.07;;;4.32;;
3141;SDS011;1581;51.568;6.998;2023-07-09T10:14:00;5.90;;;4.43;;
3141;SDS011;1581;51.568;6.998;2023-07-09T10:16:38;9.18;;;3.83;;
3141;SDS011;1581;51.568;6.998;2023-07-09T10:19:14;6.10;;;3.65;;
3141;SDS011;1581;51.568;6.998;2023-07-09T10:21:52;10.30;;;3.80;;
3141;SDS011;1581;51.568;6.998;2023-07-09T10:24:31;6.28;;;3.78;;
3141;SDS011;1581;51.568;6.998;2023-07-09T10:27:12;5.30;;;4.28;;
3141;SDS011;1581;51.568;6.998;2023-07-09T10:29:55;4.78;;;4.28;;
3141;SDS011;1581;51.568;6.998;2023-07-09T10:32:50;8.77;;;4.00;;
3141;SDS011;1581;51.568;6.998;2023-07-09T10:35:32;5.55;;;4.45;;
3141;SDS011;1581;51.568;6.998;2023-07-09T10:38:20;7.35;;;4.53;;
3141;SDS011;1581;51.568;6.998;2023-07-09T10:41:01;5.22;;;4.10;;
3141;SDS011;1581;51.568;6.998;2023-07-09T10:43:38;7.32;;;3.83;;
3141;SDS011;1581;51.568;6.998;2023-07-09T10:46:12;6.95;;;3.85;;
3141;SDS011;1581;51.568;6.998;2023-07-09T10:48:46;5.35;;;4.00;;
3141;SDS011;1581;51.568;6.998;2023-07-09T10:51:20;4.68;;;4.28;;
3141;SDS011;1581;51.568;6.998;2023-07-09T10:53:55;4.43;;;3.75;;
3141;SDS011;1581;51.568;6.998;2023-07-09T10:56:35;4.15;;;3.75;;
3141;SDS011;1581;51.568;6.998;2023-07-09T10:59:09;7.22;;;3.72;;
3141;SDS011;1581;51.568;6.998;2023-07-09T11:01:54;4.32;;;3.78;;
3141;SDS011;1581;51.568;6.998;2023-07-09T11:04:31;4.45;;;3.20;;
3141;SDS011;1581;51.568;6.998;2023-07-09T11:07:05;5.20;;;3.63;;
3141;SDS011;1581;51.568;6.998;2023-07-09T11:09:38;3.63;;;2.92;;
3141;SDS011;1581;51.568;6.998;2023-07-09T11:12:12;3.85;;;3.50;;
3141;SDS011;1581;51.568;6.998;2023-07-09T11:14:47;5.03;;;3.53;;
3141;SDS011;1581;51.568;6.998;2023-07-09T11:17:20;9.00;;;4.15;;
3141;SDS011;1581;51.568;6.998;2023-07-09T11:19:54;4.00;;;3.60;;
3141;SDS011;1581;51.568;6.998;2023-07-09T11:22:26;9.98;;;4.15;;
3141;SDS011;1581;51.568;6.998;2023-07-09T11:25:05;4.47;;;3.28;;
3141;SDS011;1581;51.568;6.998;2023-07-09T11:27:48;4.53;;;3.90;;
3141;SDS011;1581;51.568;6.998;2023-07-09T11:30:22;5.65;;;3.58;;
3141;SDS011;1581;51.568;6.998;2023-07-09T11:32:53;4.15;;;3.17;;
3141;SDS011;1581;51.568;6.998;2023-07-09T11:35:26;5.63;;;3.47;;
3141;SDS011;1581;51.568;6.998;2023-07-09T11:37:56;3.25;;;2.50;;
3141;SDS011;1581;51.568;6.998;2023-07-09T11:40:45;6.03;;;3.08;;
3141;SDS011;1581;51.568;6.998;2023-07-09T11:43:25;6.18;;;3.67;;
3141;SDS011;1581;51.568;6.998;2023-07-09T11:45:56;4.80;;;2.70;;
3141;SDS011;1581;51.568;6.998;2023-07-09T11:48:34;5.70;;;3.15;;
3141;SDS011;1581;51.568;6.998;2023-07-09T11:51:07;3.55;;;3.03;;
3141;SDS011;1581;51.568;6.998;2023-07-09T11:53:42;3.90;;;2.83;;
3141;SDS011;1581;51.568;6.998;2023-07-09T11:56:14;4.47;;;3.13;;
3141;SDS011;1581;51.568;6.998;2023-07-09T11:58:49;3.55;;;3.22;;
3141;SDS011;1581;51.568;6.998;2023-07-09T12:01:18;4.65;;;2.80;;
3141;SDS011;1581;51.568;6.998;2023-07-09T12:03:49;3.15;;;2.80;;
3141;SDS011;1581;51.568;6.998;2023-07-09T12:06:20;5.35;;;2.78;;
3141;SDS011;1581;51.568;6.998;2023-07-09T12:08:51;3.22;;;2.78;;
3141;SDS011;1581;51.568;6.998;2023-07-09T12:11:20;6.07;;;2.88;;
3141;SDS011;1581;51.568;6.998;2023-07-09T12:13:51;2.72;;;2.53;;
3141;SDS011;1581;51.568;6.998;2023-07-09T12:16:23;3.15;;;2.80;;
3141;SDS011;1581;51.568;6.998;2023-07-09T12:18:56;3.33;;;3.03;;
3141;SDS011;1581;51.568;6.998;2023-07-09T12:21:26;7.25;;;3.00;;
3141;SDS011;1581;51.568;6.998;2023-07-09T12:23:55;3.63;;;2.40;;
3141;SDS011;1581;51.568;6.998;2023-07-09T12:26:23;3.55;;;3.17;;
3141;SDS011;1581;51.568;6.998;2023-07-09T12:28:51;3.78;;;3.47;;
3141;SDS011;1581;51.568;6.998;2023-07-09T12:31:21;5.43;;;2.55;;
3141;SDS011;1581;51.568;6.998;2023-07-09T12:33:55;2.80;;;2.60;;
3141;SDS011;1581;51.568;6.998;2023-07-09T12:36:27;6.75;;;3.13;;
3141;SDS011;1581;51.568;6.998;2023-07-09T12:38:55;4.13;;;3.03;;
3141;SDS011;1581;51.568;6.998;2023-07-09T12:41:32;3.10;;;2.88;;
3141;SDS011;1581;51.568;6.998;2023-07-09T12:44:05;2.78;;;2.58;;
3141;SDS011;1581;51.568;6.998;2023-07-09T12:46:41;4.07;;;3.22;;
3141;SDS011;1581;51.568;6.998;2023-07-09T12:49:13;3.20;;;2.90;;
3141;SDS011;1581;51.568;6.998;2023-07-09T12:51:52;5.22;;;2.88;;
3141;SDS011;1581;51.568;6.998;2023-07-09T12:54:22;8.68;;;3.28;;
3141;SDS011;1581;51.568;6.998;2023-07-09T12:56:50;3.60;;;3.28;;
3141;SDS011;1581;51.568;6.998;2023-07-09T12:59:19;3.65;;;3.30;;
3141;SDS011;1581;51.568;6.998;2023-07-09T13:01:50;8.63;;;3.17;;
3141;SDS011;1581;51.568;6.998;2023-07-09T13:04:27;4.38;;;2.90;;
3141;SDS011;1581;51.568;6.998;2023-07-09T13:06:59;10.52;;;3.28;;
3141;SDS011;1581;51.568;6.998;2023-07-09T13:09:27;4.43;;;3.20;;
3141;SDS011;1581;51.568;6.998;2023-07-09T13:11:55;8.55;;;2.97;;
3141;SDS011;1581;51.568;6.998;2023-07-09T13:14:26;4.90;;;2.53;;
3141;SDS011;1581;51.568;6.998;2023-07-09T13:17:01;4.25;;;3.20;;
3141;SDS011;1581;51.568;6.998;2023-07-09T13:19:32;5.60;;;3.10;;
3141;SDS011;1581;51.568;6.998;2023-07-09T13:22:03;5.97;;;3.08;;
3141;SDS011;1581;51.568;6.998;2023-07-09T13:24:32;5.78;;;3.20;;
3141;SDS011;1581;51.568;6.998;2023-07-09T13:27:00;3.22;;;2.78;;
3141;SDS011;1581;51.568;6.998;2023-07-09T13:29:30;8.38;;;3.42;;
3141;SDS011;1581;51.568;6.998;2023-07-09T13:32:00;5.15;;;2.80;;
3141;SDS011;1581;51.568;6.998;2023-07-09T13:34:28;5.13;;;3.60;;
3141;SDS011;1581;51.568;6.998;2023-07-09T13:36:58;5.30;;;3.97;;
3141;SDS011;1581;51.568;6.998;2023-07-09T13:39:28;8.07;;;3.22;;
3141;SDS011;1581;51.568;6.998;2023-07-09T13:41:56;8.85;;;4.05;;
3141;SDS011;1581;51.568;6.998;2023-07-09T13:44:25;3.25;;;2.92;;
3141;SDS011;1581;51.568;6.998;2023-07-09T13:46:56;7.30;;;3.45;;
3141;SDS011;1581;51.568;6.998;2023-07-09T13:49:24;3.90;;;3.50;;
3141;SDS011;1581;51.568;6.998;2023-07-09T13:51:54;4.13;;;3.30;;
3141;SDS011;1581;51.568;6.998;2023-07-09T13:54:26;4.25;;;3.63;;
3141;SDS011;1581;51.568;6.998;2023-07-09T13:57:00;4.55;;;3.38;;
3141;SDS011;1581;51.568;6.998;2023-07-09T13:59:28;6.93;;;3.90;;
3141;SDS011;1581;51.568;6.998;2023-07-09T14:01:59;4.38;;;3.92;;
3141;SDS011;1581;51.568;6.998;2023-07-09T14:04:27;5.25;;;3.40;;
3141;SDS011;1581;51.568;6.998;2023-07-09T14:06:56;3.70;;;3.40;;
3141;SDS011;1581;51.568;6.998;2023-07-09T14:09:24;5.53;;;3.30;;
3141;SDS011;1581;51.568;6.998;2023-07-09T14:11:53;3.53;;;2.90;;
3141;SDS011;1581;51.568;6.998;2023-07-09T14:14:22;8.07;;;3.33;;
3141;SDS011;1581;51.568;6.998;2023-07-09T14:16:59;6.72;;;3.60;;
3141;SDS011;1581;51.568;6.998;2023-07-09T14:19:27;5.38;;;3.35;;
3141;SDS011;1581;51.568;6.998;2023-07-09T14:21:56;6.75;;;3.78;;
3141;SDS011;1581;51.568;6.998;2023-07-09T14:24:25;5.07;;;3.60;;
3141;SDS011;1581;51.568;6.998;2023-07-09T14:26:57;4.85;;;3.78;;
3141;SDS011;1581;51.568;6.998;2023-07-09T14:29:25;9.48;;;4.13;;
3141;SDS011;1581;51.568;6.998;2023-07-09T14:31:53;9.85;;;4.55;;
3141;SDS011;1581;51.568;6.998;2023-07-09T14:34:21;14.65;;;5.40;;
3141;SDS011;1581;51.568;6.998;2023-07-09T14:36:52;13.02;;;5.53;;
3141;SDS011;1581;51.568;6.998;2023-07-09T14:39:22;14.15;;;5.93;;
3141;SDS011;1581;51.568;6.998;2023-07-09T14:41:50;10.75;;;4.90;;
3141;SDS011;1581;51.568;6.998;2023-07-09T14:44:23;8.05;;;4.10;;
3141;SDS011;1581;51.568;6.998;2023-07-09T14:46:58;5.85;;;3.45;;
3141;SDS011;1581;51.568;6.998;2023-07-09T14:49:27;5.78;;;4.10;;
3141;SDS011;1581;51.568;6.998;2023-07-09T14:51:56;14.15;;;5.30;;
3141;SDS011;1581;51.568;6.998;2023-07-09T14:54:26;12.70;;;5.47;;
3141;SDS011;1581;51.568;6.998;2023-07-09T14:56:57;10.55;;;6.15;;
3141;SDS011;1581;51.568;6.998;2023-07-09T14:59:27;12.25;;;5.90;;
3141;SDS011;1581;51.568;6.998;2023-07-09T15:01:54;14.73;;;6.60;;
3141;SDS011;1581;51.568;6.998;2023-07-09T15:04:26;8.48;;;5.85;;
3141;SDS011;1581;51.568;6.998;2023-07-09T15:06:57;16.65;;;6.70;;
3141;SDS011;1581;51.568;6.998;2023-07-09T15:09:35;13.77;;;5.43;;
3141;SDS011;1581;51.568;6.998;2023-07-09T15:12:08;11.48;;;5.57;;
3141;SDS011;1581;51.568;6.998;2023-07-09T15:14:47;12.82;;;5.63;;
3141;SDS011;1581;51.568;6.998;2023-07-09T15:17:15;9.85;;;5.50;;
3141;SDS011;1581;51.568;6.998;2023-07-09T15:19:43;14.05;;;4.45;;
3141;SDS011;1581;51.568;6.998;2023-07-09T15:22:16;7.75;;;4.63;;
3141;SDS011;1581;51.568;6.998;2023-07-09T15:24:54;7.95;;;4.43;;
3141;SDS011;1581;51.568;6.998;2023-07-09T15:27:22;8.02;;;4.88;;
3141;SDS011;1581;51.568;6.998;2023-07-09T15:29:52;8.45;;;5.00;;
3141;SDS011;1581;51.568;6.998;2023-07-09T15:32:23;8.63;;;5.25;;
3141;SDS011;1581;51.568;6.998;2023-07-09T15:34:51;9.27;;;5.13;;
3141;SDS011;1581;51.568;6.998;2023-07-09T15:37:19;8.85;;;5.13;;